Time;durP1;ratioP1;P1;durP2;ratioP2;P2;SDS_P1;SDS_P2;PMS_P1;PMS_P2;Temp;Humidity;BMP_temperature;BMP_pressure;BME280_temperature;BME280_humidity;BME280_pressure;Samples;Min_cycle;Max_cycle;Signal;HPM_P1;HPM_P2
2021/06/03 00:01:55;;;;;;;;;2.33;2.33;;;;;;;;5086836;28;11511;-67
2021/06/03 00:04:20;;;;;;;;;4.00;3.33;;;;;;;;5084742;28;8834;-67
2021/06/03 00:06:45;;;;;;;;;2.67;2.67;;;;;;;;5070129;28;10522;-68
2021/06/03 00:09:11;;;;;;;;;3.67;3.67;;;;;;;;5091987;28;11287;-68
2021/06/03 00:11:37;;;;;;;;;3.00;3.00;;;;;;;;5071827;28;8811;-68
2021/06/03 00:14:04;;;;;;;;;4.67;4.00;;;;;;;;5085531;28;9270;-68
2021/06/03 00:16:33;;;;;;;;;3.00;3.00;;;;;;;;5072896;28;12364;-68
2021/06/03 00:19:00;;;;;;;;;2.00;2.00;;;;;;;;5084358;28;10557;-65
2021/06/03 00:21:25;;;;;;;;;3.00;3.00;;;;;;;;5084649;28;8791;-68
2021/06/03 00:23:51;;;;;;;;;5.00;4.00;;;;;;;;5106309;27;8806;-68
2021/06/03 00:26:16;;;;;;;;;3.33;3.33;;;;;;;;5093573;28;8910;-68
2021/06/03 00:28:43;;;;;;;;;2.67;2.33;;;;;;;;5104853;28;11634;-68
2021/06/03 00:31:08;;;;;;;;;3.25;2.25;;;;;;;;5087034;28;11719;-68
2021/06/03 00:33:33;;;;;;;;;4.67;4.00;;;;;;;;5085651;28;8952;-68
2021/06/03 00:35:59;;;;;;;;;3.00;3.00;;;;;;;;5077296;28;12754;-68
2021/06/03 00:38:24;;;;;;;;;3.67;3.00;;;;;;;;5092243;28;10465;-68
2021/06/03 00:40:49;;;;;;;;;3.00;3.00;;;;;;;;5089833;28;8817;-69
2021/06/03 00:43:14;;;;;;;;;2.00;2.00;;;;;;;;5093850;28;8788;-69
2021/06/03 00:45:40;;;;;;;;;2.67;2.67;;;;;;;;5089490;28;8802;-69
2021/06/03 00:48:06;;;;;;;;;2.25;2.25;;;;;;;;5091995;28;8926;-70
2021/06/03 00:50:37;;;;;;;;;2.00;2.00;;;;;;;;5094473;28;9908;-69
2021/06/03 00:53:05;;;;;;;;;2.25;2.25;;;;;;;;5090080;28;8942;-69
2021/06/03 00:55:32;;;;;;;;;3.25;3.25;;;;;;;;5099713;28;8887;-69
2021/06/03 00:57:58;;;;;;;;;2.50;2.50;;;;;;;;5080186;28;8826;-69
2021/06/03 01:00:23;;;;;;;;;4.00;3.00;;;;;;;;5076262;28;11552;-69
2021/06/03 01:02:48;;;;;;;;;4.00;4.00;;;;;;;;5093665;28;11483;-69
2021/06/03 01:05:22;;;;;;;;;2.00;2.00;;;;;;;;5072029;28;8825;-69
2021/06/03 01:07:49;;;;;;;;;2.00;2.00;;;;;;;;5068078;28;8980;-69
2021/06/03 01:10:33;;;;;;;;;2.00;2.00;;;;;;;;5073977;28;8796;-69
2021/06/03 01:13:07;;;;;;;;;0.25;0.25;;;;;;;;5080011;28;8760;-69
2021/06/03 01:15:33;;;;;;;;;3.00;3.00;;;;;;;;5088574;28;12727;-69
2021/06/03 01:17:58;;;;;;;;;3.00;3.00;;;;;;;;5101407;28;12612;-69
2021/06/03 01:20:24;;;;;;;;;2.00;2.00;;;;;;;;5090322;28;8840;-68
2021/06/03 01:22:54;;;;;;;;;2.00;2.00;;;;;;;;5074977;28;8924;-69
2021/06/03 01:25:21;;;;;;;;;2.00;2.00;;;;;;;;5070447;28;8793;-69
2021/06/03 01:27:46;;;;;;;;;3.00;3.00;;;;;;;;5077811;28;8867;-69
2021/06/03 01:30:18;;;;;;;;;3.00;3.00;;;;;;;;5093454;28;8796;-69
2021/06/03 01:32:45;;;;;;;;;3.25;2.25;;;;;;;;5091212;28;8788;-73
2021/06/03 01:35:12;;;;;;;;;2.25;2.00;;;;;;;;5090942;28;10599;-69
2021/06/03 01:37:38;;;;;;;;;2.00;2.00;;;;;;;;5091726;28;11583;-70
2021/06/03 01:40:05;;;;;;;;;1.00;1.00;;;;;;;;5093869;28;8784;-69
2021/06/03 01:42:30;;;;;;;;;2.00;2.00;;;;;;;;5089793;28;8774;-69
2021/06/03 01:44:56;;;;;;;;;2.00;1.33;;;;;;;;5089507;28;8795;-69
2021/06/03 01:47:21;;;;;;;;;2.00;2.00;;;;;;;;5069082;28;9411;-69
2021/06/03 01:49:46;;;;;;;;;2.33;2.33;;;;;;;;5086546;28;8980;-69
2021/06/03 01:52:12;;;;;;;;;2.00;2.00;;;;;;;;5087240;28;8951;-69
2021/06/03 01:54:38;;;;;;;;;2.00;2.00;;;;;;;;5087344;28;8991;-69
2021/06/03 01:57:04;;;;;;;;;2.50;2.50;;;;;;;;5070927;28;8779;-69
2021/06/03 01:59:31;;;;;;;;;2.33;2.33;;;;;;;;5090239;28;9442;-69
2021/06/03 02:01:56;;;;;;;;;2.00;2.00;;;;;;;;5089647;28;8767;-69
2021/06/03 02:04:22;;;;;;;;;1.00;1.00;;;;;;;;5077062;28;9913;-69
2021/06/03 02:06:47;;;;;;;;;2.67;2.00;;;;;;;;5072031;28;8883;-69
2021/06/03 02:09:13;;;;;;;;;2.00;2.00;;;;;;;;5066270;28;10453;-69
2021/06/03 02:11:39;;;;;;;;;3.00;2.33;;;;;;;;5074556;28;8825;-68
2021/06/03 02:14:07;;;;;;;;;2.00;2.00;;;;;;;;5083744;28;11733;-69
2021/06/03 02:16:36;;;;;;;;;3.00;2.75;;;;;;;;5094856;28;11567;-68
2021/06/03 02:19:03;;;;;;;;;2.75;2.75;;;;;;;;5074049;28;13880;-69
2021/06/03 02:21:28;;;;;;;;;2.00;2.00;;;;;;;;5070081;28;8802;-69
2021/06/03 02:23:55;;;;;;;;;2.00;2.00;;;;;;;;5071888;28;8829;-69
2021/06/03 02:26:20;;;;;;;;;2.00;2.00;;;;;;;;5088909;28;8807;-69
2021/06/03 02:28:46;;;;;;;;;2.00;2.00;;;;;;;;5085847;28;9555;-69
2021/06/03 02:31:11;;;;;;;;;2.00;2.00;;;;;;;;5090097;28;8850;-69
2021/06/03 02:33:36;;;;;;;;;1.00;1.00;;;;;;;;5088005;28;8824;-69
2021/06/03 02:36:02;;;;;;;;;1.67;1.67;;;;;;;;5088650;28;9017;-69
2021/06/03 02:38:29;;;;;;;;;1.33;1.33;;;;;;;;5087511;28;8891;-69
2021/06/03 02:40:57;;;;;;;;;1.00;1.00;;;;;;;;5069910;28;8805;-69
2021/06/03 02:43:22;;;;;;;;;2.00;2.00;;;;;;;;5071498;28;9873;-68
2021/06/03 02:45:48;;;;;;;;;2.00;2.00;;;;;;;;5069717;28;8822;-69
2021/06/03 02:48:13;;;;;;;;;2.33;2.33;;;;;;;;5072072;28;9499;-69
2021/06/03 02:50:38;;;;;;;;;1.00;1.00;;;;;;;;5083161;28;8833;-68
2021/06/03 02:53:05;;;;;;;;;2.00;2.00;;;;;;;;5065906;28;11627;-69
2021/06/03 02:55:31;;;;;;;;;1.00;1.00;;;;;;;;5070543;28;8844;-69
2021/06/03 02:57:57;;;;;;;;;2.00;2.00;;;;;;;;5067871;28;8810;-69
2021/06/03 03:00:23;;;;;;;;;1.67;1.67;;;;;;;;5074462;28;8846;-69
2021/06/03 03:02:48;;;;;;;;;2.25;2.25;;;;;;;;5090450;28;11627;-69
2021/06/03 03:05:14;;;;;;;;;3.00;3.00;;;;;;;;5088231;28;11453;-69
2021/06/03 03:07:40;;;;;;;;;1.33;1.33;;;;;;;;5072595;28;11491;-69
2021/06/03 03:10:07;;;;;;;;;2.00;2.00;;;;;;;;5069420;28;11633;-69
2021/06/03 03:12:32;;;;;;;;;2.00;2.00;;;;;;;;5067024;28;14546;-69
2021/06/03 03:14:57;;;;;;;;;2.67;2.00;;;;;;;;5073074;28;8780;-69
2021/06/03 03:17:22;;;;;;;;;2.00;2.00;;;;;;;;5067568;28;8977;-69
2021/06/03 03:19:47;;;;;;;;;2.00;2.00;;;;;;;;5070594;28;10357;-69
2021/06/03 03:22:13;;;;;;;;;1.00;1.00;;;;;;;;5068482;28;8793;-69
2021/06/03 03:24:38;;;;;;;;;2.67;2.67;;;;;;;;5071177;28;8818;-69
2021/06/03 03:27:03;;;;;;;;;1.67;1.67;;;;;;;;5073525;28;11719;-69
2021/06/03 03:29:29;;;;;;;;;2.00;1.00;;;;;;;;5070563;28;8806;-69
2021/06/03 03:31:54;;;;;;;;;1.67;1.67;;;;;;;;5067459;28;11483;-69
2021/06/03 03:34:19;;;;;;;;;2.00;2.00;;;;;;;;5082735;28;11617;-69
2021/06/03 03:36:45;;;;;;;;;2.00;1.33;;;;;;;;5085986;28;11494;-69
2021/06/03 03:39:11;;;;;;;;;2.00;2.00;;;;;;;;5082322;28;9492;-69
2021/06/03 03:41:36;;;;;;;;;2.33;2.00;;;;;;;;5081766;28;9237;-69
2021/06/03 03:44:02;;;;;;;;;1.67;1.67;;;;;;;;5087319;28;9703;-69
2021/06/03 03:46:27;;;;;;;;;1.00;1.00;;;;;;;;5072157;28;11447;-69
2021/06/03 03:48:52;;;;;;;;;2.00;2.00;;;;;;;;5067888;28;9875;-69
2021/06/03 03:51:17;;;;;;;;;2.00;2.00;;;;;;;;5068387;28;8829;-69
2021/06/03 03:53:43;;;;;;;;;1.67;1.67;;;;;;;;5067876;28;8811;-69
2021/06/03 03:56:08;;;;;;;;;2.00;2.00;;;;;;;;5086731;28;11541;-69
2021/06/03 03:58:37;;;;;;;;;2.67;2.00;;;;;;;;5076537;28;11714;-69
2021/06/03 04:01:03;;;;;;;;;2.00;2.00;;;;;;;;5071161;28;8804;-68
2021/06/03 04:03:28;;;;;;;;;2.00;2.00;;;;;;;;5073351;28;8813;-69
2021/06/03 04:05:53;;;;;;;;;1.67;1.67;;;;;;;;5070595;28;8899;-69
2021/06/03 04:08:19;;;;;;;;;2.00;2.00;;;;;;;;5071259;28;11450;-69
2021/06/03 04:10:44;;;;;;;;;2.33;2.33;;;;;;;;5073233;28;11493;-69
2021/06/03 04:13:09;;;;;;;;;1.67;1.67;;;;;;;;5073040;28;8879;-69
2021/06/03 04:15:34;;;;;;;;;2.00;2.00;;;;;;;;5071353;28;11340;-69
2021/06/03 04:17:59;;;;;;;;;2.00;2.00;;;;;;;;5075798;28;11488;-69
2021/06/03 04:20:25;;;;;;;;;1.67;1.67;;;;;;;;5092525;28;9051;-69
2021/06/03 04:22:51;;;;;;;;;2.00;2.00;;;;;;;;5073371;28;11439;-69
2021/06/03 04:25:16;;;;;;;;;3.00;2.00;;;;;;;;5072087;28;11519;-69
2021/06/03 04:27:42;;;;;;;;;2.00;2.00;;;;;;;;5067399;28;8831;-69
2021/06/03 04:30:09;;;;;;;;;1.67;1.67;;;;;;;;5071841;28;8794;-69
2021/06/03 04:32:34;;;;;;;;;1.75;1.75;;;;;;;;5090318;28;12836;-69
2021/06/03 04:35:00;;;;;;;;;1.33;1.33;;;;;;;;5096676;28;8813;-69
2021/06/03 04:37:26;;;;;;;;;1.33;1.33;;;;;;;;5092242;28;8797;-69
2021/06/03 04:39:51;;;;;;;;;1.00;1.00;;;;;;;;5089800;28;8776;-69
2021/06/03 04:42:16;;;;;;;;;3.67;3.33;;;;;;;;5087911;28;8866;-69
2021/06/03 04:44:41;;;;;;;;;2.00;2.00;;;;;;;;5092561;28;11488;-69
2021/06/03 04:47:07;;;;;;;;;1.33;1.33;;;;;;;;5088586;28;11564;-69
2021/06/03 04:49:32;;;;;;;;;2.33;2.00;;;;;;;;5094819;28;11826;-69
2021/06/03 04:52:24;;;;;;;;;2.00;2.00;;;;;;;;5079307;28;11518;-69
2021/06/03 04:54:42;;;;;;;;;2.00;2.00;;;;;;;;5077207;28;8836;-69
2021/06/03 04:57:07;;;;;;;;;2.00;2.00;;;;;;;;5088035;28;8825;-69
2021/06/03 04:59:33;;;;;;;;;1.67;1.67;;;;;;;;5072835;28;8806;-69
2021/06/03 05:01:58;;;;;;;;;2.00;2.00;;;;;;;;5068529;28;11455;-64
2021/06/03 05:04:23;;;;;;;;;2.00;2.00;;;;;;;;5069410;28;11648;-69
2021/06/03 05:06:48;;;;;;;;;2.00;2.00;;;;;;;;5069164;28;8799;-69
2021/06/03 05:09:13;;;;;;;;;3.33;2.67;;;;;;;;5076427;28;8884;-69
2021/06/03 05:11:38;;;;;;;;;2.00;2.00;;;;;;;;5090133;28;11734;-68
2021/06/03 05:14:04;;;;;;;;;2.33;2.00;;;;;;;;5059910;28;11443;-65
2021/06/03 05:16:29;;;;;;;;;2.33;2.33;;;;;;;;5064486;28;8896;-66
2021/06/03 05:18:54;;;;;;;;;3.00;2.33;;;;;;;;5068847;28;8818;-64
2021/06/03 05:21:19;;;;;;;;;2.00;2.00;;;;;;;;5072927;28;8842;-78
2021/06/03 05:23:44;;;;;;;;;2.33;2.33;;;;;;;;5070961;28;13407;-62
2021/06/03 05:26:10;;;;;;;;;2.00;2.00;;;;;;;;5089958;28;8803;-62
2021/06/03 05:28:35;;;;;;;;;3.00;3.00;;;;;;;;5077439;28;8826;-61
2021/06/03 05:31:00;;;;;;;;;3.67;2.67;;;;;;;;5069326;28;8877;-66
2021/06/03 05:33:25;;;;;;;;;3.67;3.67;;;;;;;;5070132;28;10531;-61
2021/06/03 05:35:50;;;;;;;;;4.00;3.00;;;;;;;;5071739;28;10158;-62
2021/06/03 05:38:15;;;;;;;;;3.00;3.00;;;;;;;;5093325;28;11514;-61
2021/06/03 05:40:41;;;;;;;;;3.00;2.67;;;;;;;;5091951;28;8823;-62
2021/06/03 05:43:06;;;;;;;;;2.00;2.00;;;;;;;;5080930;28;9025;-67
2021/06/03 05:45:31;;;;;;;;;4.67;4.00;;;;;;;;5073636;28;11475;-69
2021/06/03 05:47:57;;;;;;;;;9.33;8.67;;;;;;;;5089548;28;11409;-70
2021/06/03 05:50:23;;;;;;;;;6.67;6.67;;;;;;;;5093412;28;11490;-74
2021/06/03 05:52:50;;;;;;;;;6.50;6.00;;;;;;;;5085818;28;10534;-72
2021/06/03 05:55:16;;;;;;;;;6.00;6.00;;;;;;;;5089381;28;8796;-71
2021/06/03 05:57:41;;;;;;;;;7.00;6.67;;;;;;;;5079343;28;8838;-63
2021/06/03 06:00:08;;;;;;;;;6.67;6.00;;;;;;;;5074413;28;11629;-62
2021/06/03 06:02:48;;;;;;;;;5.00;5.00;;;;;;;;5092733;28;12637;-62
2021/06/03 06:07:59;;;;;;;;;5.00;5.00;;;;;;;;5086714;28;12461;-62
2021/06/03 06:10:24;;;;;;;;;4.33;4.33;;;;;;;;5093849;28;11635;-62
2021/06/03 06:12:49;;;;;;;;;4.33;4.33;;;;;;;;5078256;28;12983;-62
2021/06/03 06:15:15;;;;;;;;;4.00;4.00;;;;;;;;5074812;28;8815;-62
2021/06/03 06:17:40;;;;;;;;;5.67;5.67;;;;;;;;5091725;28;8852;-62
2021/06/03 06:20:05;;;;;;;;;4.00;4.00;;;;;;;;5087469;28;11453;-62
2021/06/03 06:22:31;;;;;;;;;5.00;5.00;;;;;;;;5087386;28;13736;-62
2021/06/03 06:24:56;;;;;;;;;5.00;5.00;;;;;;;;5088507;28;8864;-62
2021/06/03 06:27:21;;;;;;;;;4.00;4.00;;;;;;;;5087917;28;8843;-61
2021/06/03 06:29:46;;;;;;;;;5.33;5.00;;;;;;;;5088316;28;9973;-62
2021/06/03 06:32:12;;;;;;;;;5.33;5.33;;;;;;;;5090848;28;10428;-62
2021/06/03 06:34:37;;;;;;;;;4.67;4.67;;;;;;;;5086592;28;8813;-62
2021/06/03 06:37:02;;;;;;;;;5.67;5.00;;;;;;;;5077974;28;11670;-62
2021/06/03 06:39:27;;;;;;;;;4.00;4.00;;;;;;;;5075636;28;12748;-62
2021/06/03 06:41:52;;;;;;;;;4.00;4.00;;;;;;;;5087458;28;11640;-62
2021/06/03 06:44:18;;;;;;;;;4.00;4.00;;;;;;;;5090241;28;8776;-62
2021/06/03 06:46:43;;;;;;;;;5.00;5.00;;;;;;;;5090552;28;8804;-62
2021/06/03 06:49:08;;;;;;;;;4.00;4.00;;;;;;;;5079712;28;8770;-62
2021/06/03 06:51:33;;;;;;;;;5.00;4.00;;;;;;;;5076108;28;9234;-62
2021/06/03 06:53:59;;;;;;;;;4.00;4.00;;;;;;;;5089232;28;8828;-62
2021/06/03 06:56:24;;;;;;;;;6.00;5.33;;;;;;;;5072753;28;8810;-62
2021/06/03 06:58:49;;;;;;;;;4.33;4.00;;;;;;;;5068742;28;11498;-61
2021/06/03 07:01:14;;;;;;;;;5.67;5.00;;;;;;;;5082239;28;11540;-62
2021/06/03 07:03:39;;;;;;;;;4.33;4.33;;;;;;;;5087940;28;10436;-62
2021/06/03 07:06:05;;;;;;;;;4.00;3.33;;;;;;;;5090455;28;11471;-62
2021/06/03 07:08:30;;;;;;;;;3.67;3.67;;;;;;;;5090323;28;9678;-62
2021/06/03 07:10:55;;;;;;;;;5.00;4.67;;;;;;;;5086760;28;12626;-62
2021/06/03 07:13:21;;;;;;;;;3.67;3.67;;;;;;;;5091852;28;10468;-62
2021/06/03 07:15:46;;;;;;;;;4.33;4.00;;;;;;;;5080205;28;10298;-62
2021/06/03 07:18:11;;;;;;;;;5.00;4.67;;;;;;;;5067982;28;11562;-62
2021/06/03 07:20:37;;;;;;;;;4.00;4.00;;;;;;;;5072506;28;11457;-62
2021/06/03 07:23:06;;;;;;;;;5.00;5.00;;;;;;;;5064133;28;11567;-62
2021/06/03 07:25:36;;;;;;;;;5.00;4.75;;;;;;;;5086439;28;9051;-62
2021/06/03 07:28:02;;;;;;;;;5.25;5.00;;;;;;;;5076814;28;9070;-62
2021/06/03 07:30:27;;;;;;;;;3.00;3.00;;;;;;;;5069226;28;10522;-62
2021/06/03 07:32:53;;;;;;;;;5.00;4.67;;;;;;;;5068475;28;10445;-62
2021/06/03 07:35:20;;;;;;;;;6.00;6.00;;;;;;;;5090157;28;11478;-62
2021/06/03 07:37:46;;;;;;;;;4.75;4.00;;;;;;;;5087344;28;12481;-62
2021/06/03 07:40:13;;;;;;;;;5.00;4.50;;;;;;;;5077970;28;10742;-62
2021/06/03 07:42:39;;;;;;;;;3.75;3.75;;;;;;;;5066363;28;12657;-62
2021/06/03 07:45:06;;;;;;;;;5.00;4.33;;;;;;;;5069132;28;11678;-62
2021/06/03 07:47:31;;;;;;;;;5.00;4.25;;;;;;;;5070226;28;10551;-62
2021/06/03 07:49:57;;;;;;;;;3.00;3.00;;;;;;;;5067996;28;8911;-62
2021/06/03 07:52:22;;;;;;;;;4.00;4.00;;;;;;;;5083743;28;11509;-62
2021/06/03 07:54:47;;;;;;;;;5.33;4.33;;;;;;;;5078138;28;10092;-62
2021/06/03 07:57:12;;;;;;;;;6.67;6.00;;;;;;;;5070284;28;13611;-62
2021/06/03 07:59:38;;;;;;;;;5.00;5.00;;;;;;;;5092268;28;11476;-62
2021/06/03 08:02:03;;;;;;;;;4.67;3.67;;;;;;;;5069491;28;10511;-62
2021/06/03 08:04:28;;;;;;;;;3.67;2.67;;;;;;;;5069902;28;11467;-62
2021/06/03 08:06:54;;;;;;;;;4.00;4.00;;;;;;;;5078784;28;8792;-62
2021/06/03 08:09:19;;;;;;;;;5.33;5.33;;;;;;;;5082440;28;11532;-62
2021/06/03 08:11:45;;;;;;;;;5.00;4.33;;;;;;;;5067570;28;11478;-62
2021/06/03 08:14:11;;;;;;;;;4.00;4.00;;;;;;;;5070003;28;9753;-62
2021/06/03 08:16:36;;;;;;;;;4.33;4.00;;;;;;;;5084860;28;11458;-62
2021/06/03 08:19:01;;;;;;;;;4.00;4.00;;;;;;;;5089341;28;8792;-62
2021/06/03 08:21:26;;;;;;;;;3.67;3.67;;;;;;;;5090430;28;9564;-62
2021/06/03 08:23:51;;;;;;;;;3.67;3.00;;;;;;;;5087727;28;11438;-62
2021/06/03 08:26:17;;;;;;;;;2.33;2.33;;;;;;;;5083503;28;8788;-62
2021/06/03 08:28:43;;;;;;;;;5.00;3.00;;;;;;;;5087403;28;11477;-62
2021/06/03 08:31:08;;;;;;;;;3.00;3.00;;;;;;;;5076853;28;11700;-62
2021/06/03 08:33:33;;;;;;;;;4.67;4.67;;;;;;;;5066944;28;8828;-62
2021/06/03 08:35:59;;;;;;;;;4.00;4.00;;;;;;;;5067331;28;11466;-62
2021/06/03 08:38:24;;;;;;;;;3.67;3.33;;;;;;;;5070184;28;8806;-62
2021/06/03 08:40:51;;;;;;;;;5.00;5.00;;;;;;;;5083956;28;11530;-61
2021/06/03 08:43:17;;;;;;;;;2.50;2.50;;;;;;;;5082554;28;11668;-62
2021/06/03 08:45:44;;;;;;;;;3.00;3.00;;;;;;;;5074901;28;12806;-62
2021/06/03 08:48:10;;;;;;;;;3.00;3.00;;;;;;;;5073812;28;11584;-62
2021/06/03 08:50:37;;;;;;;;;3.00;3.00;;;;;;;;5075267;28;8819;-62
2021/06/03 08:53:03;;;;;;;;;4.50;4.00;;;;;;;;5089630;28;8864;-61
2021/06/03 08:58:13;;;;;;;;;4.00;3.50;;;;;;;;5089825;28;10297;-62
2021/06/03 09:00:39;;;;;;;;;3.00;3.00;;;;;;;;5089776;28;8871;-62
2021/06/03 09:03:04;;;;;;;;;3.33;3.33;;;;;;;;5071457;28;11432;-62
2021/06/03 09:05:29;;;;;;;;;3.00;3.00;;;;;;;;5071561;28;8934;-62
2021/06/03 09:07:55;;;;;;;;;3.00;3.00;;;;;;;;5086514;28;8888;-62
2021/06/03 09:10:33;;;;;;;;;4.00;3.33;;;;;;;;5087100;28;8818;-62
2021/06/03 09:13:10;;;;;;;;;3.75;3.75;;;;;;;;5077595;28;11782;-62
2021/06/03 09:15:36;;;;;;;;;3.75;3.75;;;;;;;;5072282;28;10554;-62
2021/06/03 09:18:03;;;;;;;;;3.00;3.00;;;;;;;;5072582;28;8778;-62
2021/06/03 09:20:28;;;;;;;;;3.00;3.00;;;;;;;;5071084;28;8845;-62
2021/06/03 09:22:53;;;;;;;;;4.00;4.00;;;;;;;;5069154;28;8803;-62
2021/06/03 09:25:42;;;;;;;;;3.00;3.00;;;;;;;;5070644;28;8932;-62
2021/06/03 09:28:17;;;;;;;;;4.00;3.00;;;;;;;;5059108;28;8958;-61
2021/06/03 09:31:00;;;;;;;;;3.25;3.25;;;;;;;;5071789;28;8779;-62
2021/06/03 09:33:35;;;;;;;;;4.00;3.00;;;;;;;;5071059;28;11579;-62
2021/06/03 09:36:00;;;;;;;;;3.00;2.75;;;;;;;;5071836;28;11651;-62
2021/06/03 09:38:25;;;;;;;;;3.00;3.00;;;;;;;;5074597;28;11569;-62
2021/06/03 09:40:51;;;;;;;;;3.00;3.00;;;;;;;;5068542;28;8979;-61
2021/06/03 09:43:23;;;;;;;;;5.00;3.00;;;;;;;;5070198;28;8779;-62
2021/06/03 09:45:58;;;;;;;;;3.25;3.25;;;;;;;;5073000;28;8817;-62
2021/06/03 09:48:40;;;;;;;;;3.75;3.50;;;;;;;;5069363;28;11598;-62
2021/06/03 09:51:15;;;;;;;;;3.25;3.00;;;;;;;;5068881;28;8772;-62
2021/06/03 09:53:59;;;;;;;;;4.25;3.75;;;;;;;;5072329;28;10326;-62
2021/06/03 09:56:37;;;;;;;;;3.75;3.75;;;;;;;;5070117;28;15966;-61
2021/06/03 09:59:04;;;;;;;;;3.50;3.50;;;;;;;;5068968;28;8817;-62
2021/06/03 10:02:02;;;;;;;;;3.25;3.00;;;;;;;;5072920;28;8770;-62
2021/06/03 10:04:36;;;;;;;;;2.50;2.50;;;;;;;;5018656;28;9852;-62
2021/06/03 10:07:06;;;;;;;;;2.00;2.00;;;;;;;;5080824;28;11663;-62
2021/06/03 10:09:35;;;;;;;;;3.00;2.00;;;;;;;;5091387;28;11304;-62
2021/06/03 10:12:01;;;;;;;;;3.00;3.00;;;;;;;;5085162;28;8827;-62
2021/06/03 10:14:27;;;;;;;;;2.67;2.67;;;;;;;;5071580;28;8815;-62
2021/06/03 10:16:52;;;;;;;;;2.00;2.00;;;;;;;;5086510;28;11790;-62
2021/06/03 10:19:17;;;;;;;;;2.00;2.00;;;;;;;;5088953;28;8820;-62
2021/06/03 10:21:43;;;;;;;;;2.67;2.67;;;;;;;;5086504;28;8906;-62
2021/06/03 10:24:08;;;;;;;;;2.00;2.00;;;;;;;;5086894;28;8928;-62
2021/06/03 10:26:52;;;;;;;;;3.33;3.00;;;;;;;;5071441;28;8838;-62
2021/06/03 10:29:17;;;;;;;;;3.50;3.50;;;;;;;;5086830;28;15089;-62
2021/06/03 10:31:43;;;;;;;;;2.33;2.00;;;;;;;;5087766;28;8829;-62
2021/06/03 10:34:09;;;;;;;;;3.67;3.67;;;;;;;;5087948;28;11480;-62
2021/06/03 10:36:34;;;;;;;;;2.25;2.25;;;;;;;;5083491;28;11603;-62
2021/06/03 10:38:59;;;;;;;;;3.33;3.00;;;;;;;;5069883;28;11722;-62
2021/06/03 10:41:25;;;;;;;;;3.00;3.00;;;;;;;;5086230;28;11455;-62
2021/06/03 10:43:50;;;;;;;;;3.33;2.33;;;;;;;;5074717;28;8790;-62
2021/06/03 10:46:15;;;;;;;;;3.33;2.67;;;;;;;;5066944;28;10471;-62
2021/06/03 10:48:41;;;;;;;;;3.00;3.00;;;;;;;;5080860;28;8785;-62
2021/06/03 10:51:08;;;;;;;;;2.00;2.00;;;;;;;;5092046;28;10728;-61
2021/06/03 10:53:33;;;;;;;;;2.00;2.00;;;;;;;;5088802;28;9145;-62
2021/06/03 10:56:11;;;;;;;;;2.67;2.67;;;;;;;;5088421;28;8804;-62
2021/06/03 10:58:38;;;;;;;;;2.25;2.25;;;;;;;;5086762;28;8822;-62
2021/06/03 11:01:04;;;;;;;;;4.00;3.00;;;;;;;;5087406;28;10397;-62
2021/06/03 11:03:38;;;;;;;;;3.00;3.00;;;;;;;;5083991;28;11561;-62
2021/06/03 11:06:14;;;;;;;;;2.25;2.25;;;;;;;;5071397;28;9224;-62
2021/06/03 11:08:46;;;;;;;;;2.00;2.00;;;;;;;;5084813;28;11670;-62
2021/06/03 11:11:12;;;;;;;;;3.00;3.00;;;;;;;;5066933;28;14591;-62
2021/06/03 11:13:38;;;;;;;;;3.00;2.67;;;;;;;;5064500;28;8834;-62
2021/06/03 11:16:05;;;;;;;;;2.00;2.00;;;;;;;;5069413;28;9035;-60
2021/06/03 11:18:45;;;;;;;;;3.25;2.50;;;;;;;;5066543;28;11582;-60
2021/06/03 11:21:29;;;;;;;;;2.00;2.00;;;;;;;;5067743;28;11812;-61
2021/06/03 11:23:54;;;;;;;;;2.00;2.00;;;;;;;;5070568;28;11454;-61
2021/06/03 11:26:46;;;;;;;;;3.00;3.00;;;;;;;;5066862;28;8837;-60
2021/06/03 11:29:30;;;;;;;;;3.75;3.00;;;;;;;;5059658;28;13066;-61
2021/06/03 11:32:04;;;;;;;;;2.75;2.75;;;;;;;;5070850;28;8808;-60
2021/06/03 11:34:39;;;;;;;;;3.00;3.00;;;;;;;;5068281;28;12898;-60
2021/06/03 11:37:06;;;;;;;;;3.00;2.25;;;;;;;;5066299;28;11581;-60
2021/06/03 11:39:31;;;;;;;;;3.00;3.00;;;;;;;;5068912;28;9070;-61
2021/06/03 11:42:15;;;;;;;;;3.00;3.00;;;;;;;;5066265;28;8954;-60
2021/06/03 11:44:59;;;;;;;;;3.00;3.00;;;;;;;;5068755;28;8895;-60
2021/06/03 11:47:24;;;;;;;;;2.00;2.00;;;;;;;;5067581;28;15257;-60
2021/06/03 11:49:49;;;;;;;;;4.00;4.00;;;;;;;;5066807;28;9971;-60
2021/06/03 11:52:18;;;;;;;;;3.67;3.67;;;;;;;;5068375;28;8895;-61
2021/06/03 11:54:54;;;;;;;;;2.50;2.50;;;;;;;;5064961;28;11561;-60
2021/06/03 11:57:20;;;;;;;;;3.00;2.75;;;;;;;;5065840;28;11576;-60
2021/06/03 12:00:08;;;;;;;;;1.00;1.00;;;;;;;;5069252;28;11752;-61
2021/06/03 12:02:35;;;;;;;;;2.50;2.50;;;;;;;;5069670;28;11515;-60
2021/06/03 12:05:09;;;;;;;;;4.00;4.00;;;;;;;;5086214;28;11578;-60
2021/06/03 12:07:50;;;;;;;;;2.00;2.00;;;;;;;;5089108;27;11783;-61
2021/06/03 12:10:17;;;;;;;;;4.00;4.00;;;;;;;;5088667;28;8962;-61
2021/06/03 12:12:42;;;;;;;;;2.00;2.00;;;;;;;;5087127;28;10423;-61
2021/06/03 12:15:24;;;;;;;;;4.00;4.00;;;;;;;;5090259;28;9046;-61
2021/06/03 12:17:57;;;;;;;;;2.50;2.50;;;;;;;;5090341;28;9160;-61
2021/06/03 12:20:23;;;;;;;;;2.50;2.50;;;;;;;;5088774;28;11537;-61
2021/06/03 12:22:48;;;;;;;;;2.75;2.50;;;;;;;;5095258;28;8780;-61
2021/06/03 12:25:14;;;;;;;;;3.00;3.00;;;;;;;;5079396;28;8837;-67
2021/06/03 12:27:43;;;;;;;;;2.67;2.67;;;;;;;;5070603;28;12541;-58
2021/06/03 12:30:14;;;;;;;;;3.00;3.00;;;;;;;;5072956;28;11624;-66
2021/06/03 12:32:39;;;;;;;;;3.00;3.00;;;;;;;;5071911;28;11718;-67
2021/06/03 12:35:05;;;;;;;;;2.00;2.00;;;;;;;;5090045;28;8848;-68
2021/06/03 12:37:33;;;;;;;;;4.00;3.00;;;;;;;;5090672;28;9821;-67
2021/06/03 12:39:58;;;;;;;;;2.00;2.00;;;;;;;;5089275;28;11460;-67
2021/06/03 12:42:26;;;;;;;;;2.33;2.00;;;;;;;;5075863;28;8873;-68
2021/06/03 12:44:52;;;;;;;;;3.00;3.00;;;;;;;;5093554;28;8776;-70
2021/06/03 12:47:17;;;;;;;;;2.50;2.50;;;;;;;;5092109;28;10571;-72
2021/06/03 12:49:42;;;;;;;;;3.00;3.00;;;;;;;;5095964;28;11482;-70
2021/06/03 12:52:08;;;;;;;;;3.00;3.00;;;;;;;;5092610;28;11484;-69
2021/06/03 12:54:35;;;;;;;;;2.67;2.67;;;;;;;;5093277;28;8823;-70
2021/06/03 12:57:02;;;;;;;;;3.75;3.00;;;;;;;;5089322;28;11398;-70
2021/06/03 12:59:28;;;;;;;;;2.50;2.50;;;;;;;;5090080;28;12700;-71
2021/06/03 13:01:59;;;;;;;;;3.25;3.25;;;;;;;;5092763;28;11579;-66
2021/06/03 13:04:43;;;;;;;;;2.50;2.50;;;;;;;;5092602;28;11648;-70
2021/06/03 13:07:10;;;;;;;;;2.50;2.50;;;;;;;;5077417;28;11594;-74
2021/06/03 13:09:38;;;;;;;;;3.00;2.00;;;;;;;;5074493;28;8876;-71
2021/06/03 13:12:07;;;;;;;;;3.00;3.00;;;;;;;;5070373;28;11749;-69
2021/06/03 13:14:38;;;;;;;;;2.75;2.75;;;;;;;;5090432;28;8792;-68
2021/06/03 13:17:05;;;;;;;;;2.50;2.50;;;;;;;;5081255;28;11580;-70
2021/06/03 13:19:33;;;;;;;;;2.00;2.00;;;;;;;;5076266;28;8901;-59
2021/06/03 13:21:59;;;;;;;;;2.25;2.25;;;;;;;;5068360;28;8783;-72
2021/06/03 13:24:43;;;;;;;;;3.00;3.00;;;;;;;;5079889;28;8913;-71
2021/06/03 13:27:09;;;;;;;;;2.25;2.00;;;;;;;;5091562;28;11812;-58
2021/06/03 13:29:38;;;;;;;;;3.00;3.00;;;;;;;;5089812;28;10521;-70
2021/06/03 13:32:04;;;;;;;;;4.00;3.50;;;;;;;;5090497;28;10380;-69
2021/06/03 13:34:31;;;;;;;;;2.00;2.00;;;;;;;;5074784;28;11515;-69
2021/06/03 13:37:04;;;;;;;;;1.00;1.00;;;;;;;;5085467;28;11833;-72
2021/06/03 13:39:30;;;;;;;;;2.00;2.00;;;;;;;;5085294;28;9870;-71
2021/06/03 13:41:57;;;;;;;;;2.50;2.50;;;;;;;;5070209;28;8829;-71
2021/06/03 13:44:22;;;;;;;;;2.50;2.50;;;;;;;;5073766;28;8789;-69
2021/06/03 13:46:47;;;;;;;;;2.33;2.00;;;;;;;;5070651;28;8911;-70
2021/06/03 13:49:31;;;;;;;;;3.67;3.67;;;;;;;;5071084;28;8810;-76
2021/06/03 13:52:01;;;;;;;;;4.75;4.00;;;;;;;;5070225;28;11632;-73
2021/06/03 13:54:26;;;;;;;;;3.50;3.00;;;;;;;;5076051;28;11759;-59
2021/06/03 13:56:51;;;;;;;;;4.00;4.00;;;;;;;;5089046;28;10647;-60
2021/06/03 13:59:17;;;;;;;;;6.00;4.67;;;;;;;;5074104;28;10487;-71
2021/06/03 14:03:20;;;;;;;;;6.00;4.33;;;;;;;;5048776;27;114078;-69
2021/06/03 14:06:24;;;;;;;;;3.67;3.33;;;;;;;;5040837;28;20778;-70
2021/06/03 14:08:50;;;;;;;;;4.00;3.75;;;;;;;;5021618;28;11593;-70
2021/06/03 14:11:27;;;;;;;;;4.50;3.25;;;;;;;;5039516;28;10616;-73
2021/06/03 14:13:55;;;;;;;;;2.00;2.00;;;;;;;;5043462;28;8818;-72
2021/06/03 14:16:34;;;;;;;;;4.00;4.00;;;;;;;;5044539;28;13473;-71
2021/06/03 14:19:07;;;;;;;;;3.25;3.25;;;;;;;;5044986;28;9042;-59
2021/06/03 14:21:33;;;;;;;;;3.75;3.50;;;;;;;;5040640;28;12016;-68
2021/06/03 14:23:58;;;;;;;;;3.33;3.33;;;;;;;;5045574;28;8799;-67
2021/06/03 14:26:23;;;;;;;;;3.00;3.00;;;;;;;;5046329;28;8803;-72
2021/06/03 14:29:02;;;;;;;;;5.00;4.00;;;;;;;;5042667;28;8933;-79
2021/06/03 14:31:43;;;;;;;;;3.25;3.25;;;;;;;;5043327;28;9200;-72
2021/06/03 14:34:25;;;;;;;;;3.50;2.50;;;;;;;;5041920;28;11490;-68
2021/06/03 14:37:04;;;;;;;;;4.00;4.00;;;;;;;;5042846;28;10544;-67
2021/06/03 14:39:39;;;;;;;;;3.25;2.50;;;;;;;;5044073;28;11744;-67
2021/06/03 14:42:05;;;;;;;;;2.25;2.25;;;;;;;;5041940;28;11569;-67
2021/06/03 14:44:30;;;;;;;;;3.00;3.00;;;;;;;;5043825;28;11497;-61
2021/06/03 14:46:55;;;;;;;;;4.00;3.00;;;;;;;;5042012;28;11652;-61
2021/06/03 14:49:21;;;;;;;;;4.00;4.00;;;;;;;;5039533;28;8835;-61
2021/06/03 14:51:47;;;;;;;;;5.25;5.00;;;;;;;;5038968;28;8795;-61
2021/06/03 14:54:12;;;;;;;;;5.00;5.00;;;;;;;;5041697;28;10567;-67
2021/06/03 14:56:37;;;;;;;;;6.00;5.00;;;;;;;;5039102;28;8850;-68
2021/06/03 14:59:02;;;;;;;;;7.00;6.00;;;;;;;;5040405;28;8813;-68
2021/06/03 15:01:27;;;;;;;;;6.00;5.33;;;;;;;;5041848;28;8830;-67